This is the latest recevied weather packets stored in our database for station/object EB1BCG-1. If no packets are shown the sender has not sent any weather packets the latest 1 day(s).
| Time | Temp. | Humidity | Pressure | Rain* | Wind** | Luminosity | Snow |
|---|---|---|---|---|---|---|---|
| 1777914468 | 12.22° C | 59% | 1010.8 hPa | 0 mm | 0 m/s | - | - |
| 1777913861 | 13.89° C | 59% | 1010.8 hPa | 0 mm | 0 m/s | - | - |
| 1777913255 | 13.33° C | 59% | 1010.8 hPa | 0 mm | 0 m/s | - | - |
| 1777912649 | 14.44° C | 54% | 1010.7 hPa | 0 mm | 0 m/s | - | - |
| 1777912044 | 14.44° C | 56% | 1010.8 hPa | 0 mm | 0 m/s | - | - |
| 1777911438 | 15° C | 57% | 1010.5 hPa | 0 mm | 0 m/s | - | - |
| 1777910829 | 16.11° C | 54% | 1010.4 hPa | 0 mm | 0 m/s | - | - |
| 1777910223 | 15° C | 50% | 1010.1 hPa | 0 mm | 0 m/s | - | - |
| 1777909617 | 18.33° C | 48% | 1009.7 hPa | 0 mm | 0 m/s | - | - |
| 1777909011 | 19.44° C | 51% | 1009.6 hPa | 0 mm | 0 m/s | - | - |
| 1777908408 | 21.11° C | 54% | 1009.6 hPa | 0 mm | 0 m/s | - | - |
| 1777907797 | 20.56° C | 52% | 1009.7 hPa | 0 mm | 0 m/s | - | - |
| 1777907190 | 21.11° C | 58% | 1009.6 hPa | 0 mm | 0 m/s | - | - |
| 1777906582 | 20° C | 55% | 1009.8 hPa | 0 mm | 0 m/s | - | - |
| 1777905975 | 17.78° C | 54% | 1009.9 hPa | 0 mm | 0 m/s | - | - |
| 1777905368 | 17.78° C | 58% | 1010.1 hPa | 0 mm | 0 m/s | - | - |
| 1777904761 | 17.78° C | 61% | 1010.3 hPa | 0 mm | 0 m/s | - | - |
| 1777904153 | 18.33° C | 67% | 1010.3 hPa | 0 mm | 0 m/s | - | - |
| 1777903548 | 18.33° C | 70% | 1010.5 hPa | 0 mm | 0 m/s | - | - |
| 1777902937 | 18.33° C | 81% | 1010.6 hPa | 0 mm | 0 m/s | - | - |
| 1777901724 | 15° C | 99% | 1011.3 hPa | 0 mm | 0 m/s | - | - |
| 1777901114 | 10.56° C | 99% | 1011.7 hPa | 1.02 mm | 0 m/s | - | - |
| 1777900508 | 9.44° C | 99% | 1012.1 hPa | 1.02 mm | 0 m/s | - | - |
| 1777899900 | 9.44° C | 99% | 1012.5 hPa | 1.02 mm | 0 m/s | - | - |
| 1777899293 | 10.56° C | 99% | 1012.4 hPa | 3.05 mm | 0 m/s | - | - |
* Rain latest hour (hover to see other rain measurements)
** Current wind speed in m/s (hover to see current wind gust speed)